Terminal Aerodrome Forecast
Issued by NWS Melbourne, FL

Home | Current Version | Previous Version | Text Only | Print | Product List | Glossary On
Versions: 1 2 3 4 5 6 7 8 9 10 11 12 13 14 15 16 17 18 19 20 21 22 23 24 25 26 27
000
FTUS42 KMLB 011739
TAFMCO
TAF
KMCO 011739Z 0118/0218 23008KT P6SM VCTS SCT045CB SCT150 SCT250
      TEMPO 0118/0119 VRB20G30KT 3SM TSRA BKN030CB
     FM012200 20008KT P6SM SCT035 BKN120
     FM020200 18003KT P6SM BKN250
     FM021400 20005KT P6SM SCT025 SCT250=

USA.gov is the U.S. government's official web portal to all federal, state and local government web resources and services.